Time;durP1;ratioP1;P1;durP2;ratioP2;P2;SDS_P1;SDS_P2;PMS_P1;PMS_P2;Temp;Humidity;BMP_temperature;BMP_pressure;BME280_temperature;BME280_humidity;BME280_pressure;Samples;Min_cycle;Max_cycle;Signal;HPM_P1;HPM_P2
2022/07/29 00:04:44;;;;;;;;;;;;;;;;;;10583720;28;20014;-70
2022/07/29 00:09:46;;;;;;;;;;;;;;;;;;10583321;28;19924;-70
2022/07/29 00:14:53;;;;;;;;;;;;;;;;;;10582505;28;19924;-70
2022/07/29 00:19:55;;;;;;;;;;;;;;;;;;10582713;28;19946;-70
2022/07/29 00:24:57;;;;;;;;;;;;;;;;;;10583098;28;19924;-70
2022/07/29 00:29:59;;;;;;;;;;;;;;;;;;10582155;28;19923;-70
2022/07/29 00:40:22;;;;;;;;;;;;;;;;;;10582740;28;19930;-70
2022/07/29 00:45:24;;;;;;;;;;;;;;;;;;10582438;28;19924;-70
2022/07/29 00:50:26;;;;;;;;;;;;;;;;;;10583815;28;19928;-70
2022/07/29 00:55:28;;;;;;;;;;;;;;;;;;10591375;28;19930;-70
2022/07/29 01:00:31;;;;;;;;;;;;;;;;;;10590292;28;19924;-70
2022/07/29 01:05:33;;;;;;;;;;;;;;;;;;10590887;28;19924;-70
2022/07/29 01:10:50;;;;;;;;;;;;;;;;;;10589990;28;19931;-70
2022/07/29 01:15:52;;;;;;;;;;;;;;;;;;10590598;28;20022;-70
2022/07/29 01:20:54;;;;;;;;;;;;;;;;;;10590196;28;19938;-70
2022/07/29 01:25:56;;;;;;;;;;;;;;;;;;10590120;28;19923;-70
2022/07/29 01:30:58;;;;;;;;;;;;;;;;;;10589043;28;20370;-70
2022/07/29 01:36:01;;;;;;;;;;;;;;;;;;10589799;28;19924;-70
2022/07/29 01:41:03;;;;;;;;;;;;;;;;;;10588369;28;19931;-70
2022/07/29 01:46:05;;;;;;;;;;;;;;;;;;10589333;28;19967;-70
2022/07/29 01:51:07;;;;;;;;;;;;;;;;;;10570785;28;19928;-70
2022/07/29 01:56:09;;;;;;;;;;;;;;;;;;10588995;28;19942;-70
2022/07/29 02:01:11;;;;;;;;;;;;;;;;;;10587671;28;20324;-68
2022/07/29 02:06:13;;;;;;;;;;;;;;;;;;10587461;28;20282;-68
2022/07/29 02:11:15;;;;;;;;;;;;;;;;;;10570057;28;19924;-69
2022/07/29 02:16:17;;;;;;;;;;;;;;;;;;10546731;22;20313;-66
2022/07/29 02:21:19;;;;;;;;;;;;;;;;;;10545567;28;19970;-65
2022/07/29 02:26:21;;;;;;;;;;;;;;;;;;10545206;28;19924;-65
2022/07/29 02:31:24;;;;;;;;;;;;;;;;;;10544486;28;19924;-66
2022/07/29 02:36:26;;;;;;;;;;;;;;;;;;10545170;28;19930;-66
2022/07/29 02:41:28;;;;;;;;;;;;;;;;;;10544745;28;19931;-66
2022/07/29 02:46:31;;;;;;;;;;;;;;;;;;10544806;28;19924;-66
2022/07/29 02:51:33;;;;;;;;;;;;;;;;;;10543399;28;20333;-66
2022/07/29 02:56:45;;;;;;;;;;;;;;;;;;10543666;28;20437;-66
2022/07/29 03:01:47;;;;;;;;;;;;;;;;;;10543167;28;19931;-66
2022/07/29 03:06:49;;;;;;;;;;;;;;;;;;10525357;28;20344;-66
2022/07/29 03:11:53;;;;;;;;;;;;;;;;;;10542696;28;19931;-67
2022/07/29 03:16:56;;;;;;;;;;;;;;;;;;10542748;28;19924;-67
2022/07/29 03:21:58;;;;;;;;;;;;;;;;;;10542598;28;20374;-67
2022/07/29 03:27:00;;;;;;;;;;;;;;;;;;10543027;28;19943;-67
2022/07/29 03:32:02;;;;;;;;;;;;;;;;;;10542696;28;19935;-66
2022/07/29 03:37:05;;;;;;;;;;;;;;;;;;10542087;28;19928;-65
2022/07/29 03:42:07;;;;;;;;;;;;;;;;;;10541494;28;20428;-65
2022/07/29 03:47:10;;;;;;;;;;;;;;;;;;10541722;28;20306;-65
2022/07/29 03:52:12;;;;;;;;;;;;;;;;;;10541055;28;20357;-65
2022/07/29 03:57:14;;;;;;;;;;;;;;;;;;10524073;28;19924;-65
2022/07/29 04:02:16;;;;;;;;;;;;;;;;;;10541478;28;19931;-65
2022/07/29 04:07:22;;;;;;;;;;;;;;;;;;10541806;28;19931;-65
2022/07/29 04:12:24;;;;;;;;;;;;;;;;;;10540969;28;19928;-65
2022/07/29 04:17:26;;;;;;;;;;;;;;;;;;10540585;28;19932;-65
2022/07/29 04:22:29;;;;;;;;;;;;;;;;;;10540916;28;19923;-65
2022/07/29 04:27:31;;;;;;;;;;;;;;;;;;10539925;28;20289;-65
2022/07/29 04:32:33;;;;;;;;;;;;;;;;;;10540595;28;19931;-65
2022/07/29 04:37:35;;;;;;;;;;;;;;;;;;10540778;28;19931;-65
2022/07/29 04:42:37;;;;;;;;;;;;;;;;;;10539728;28;20374;-65
2022/07/29 04:47:42;;;;;;;;;;;;;;;;;;10539844;28;20440;-65
2022/07/29 04:52:45;;;;;;;;;;;;;;;;;;10539300;28;19950;-65
2022/07/29 04:57:47;;;;;;;;;;;;;;;;;;10539773;28;19931;-65
2022/07/29 05:02:49;;;;;;;;;;;;;;;;;;10539842;28;19924;-65
2022/07/29 05:07:51;;;;;;;;;;;;;;;;;;10539360;28;20299;-65
2022/07/29 05:12:53;;;;;;;;;;;;;;;;;;10539685;28;19935;-65
2022/07/29 05:17:55;;;;;;;;;;;;;;;;;;10540323;28;19935;-65
2022/07/29 05:22:57;;;;;;;;;;;;;;;;;;10538964;28;20290;-65
2022/07/29 05:27:59;;;;;;;;;;;;;;;;;;10539691;28;19927;-65
2022/07/29 05:33:01;;;;;;;;;;;;;;;;;;10538764;28;19928;-65
2022/07/29 05:38:03;;;;;;;;;;;;;;;;;;10541100;28;20294;-64
2022/07/29 05:43:05;;;;;;;;;;;;;;;;;;10545178;28;19928;-64
2022/07/29 05:48:07;;;;;;;;;;;;;;;;;;10546514;28;19928;-64
2022/07/29 05:53:09;;;;;;;;;;;;;;;;;;10546030;28;20374;-65
2022/07/29 05:58:21;;;;;;;;;;;;;;;;;;10546775;28;20290;-65
2022/07/29 06:03:23;;;;;;;;;;;;;;;;;;10545620;28;19924;-65
2022/07/29 06:08:25;;;;;;;;;;;;;;;;;;10545635;28;20305;-65
2022/07/29 06:13:27;;;;;;;;;;;;;;;;;;10545545;28;19932;-65
2022/07/29 06:18:29;;;;;;;;;;;;;;;;;;10546356;28;19932;-65
2022/07/29 06:23:31;;;;;;;;;;;;;;;;;;10544804;28;19947;-65
2022/07/29 06:28:33;;;;;;;;;;;;;;;;;;10545641;28;19924;-65
2022/07/29 06:33:35;;;;;;;;;;;;;;;;;;10545123;28;19928;-65
2022/07/29 06:38:38;;;;;;;;;;;;;;;;;;10545196;28;19924;-65
2022/07/29 06:43:43;;;;;;;;;;;;;;;;;;10544143;28;19928;-65
2022/07/29 06:48:52;;;;;;;;;;;;;;;;;;10543794;28;19924;-65
2022/07/29 06:53:55;;;;;;;;;;;;;;;;;;10544288;28;20014;-65
2022/07/29 06:58:59;;;;;;;;;;;;;;;;;;10543688;28;19924;-65
2022/07/29 07:04:02;;;;;;;;;;;;;;;;;;10543337;28;19924;-65
2022/07/29 07:09:04;;;;;;;;;;;;;;;;;;10543574;28;19931;-65
2022/07/29 07:14:06;;;;;;;;;;;;;;;;;;10542880;28;19928;-65
2022/07/29 07:19:08;;;;;;;;;;;;;;;;;;10543463;28;19924;-65
2022/07/29 07:24:10;;;;;;;;;;;;;;;;;;10542870;28;19924;-65
2022/07/29 07:29:12;;;;;;;;;;;;;;;;;;10542225;28;19924;-65
2022/07/29 07:34:14;;;;;;;;;;;;;;;;;;10541972;28;20302;-65
2022/07/29 07:39:17;;;;;;;;;;;;;;;;;;10542354;28;19924;-65
2022/07/29 07:44:19;;;;;;;;;;;;;;;;;;10541732;28;19924;-65
2022/07/29 07:49:22;;;;;;;;;;;;;;;;;;10542341;28;20285;-65
2022/07/29 07:54:24;;;;;;;;;;;;;;;;;;10541613;28;19924;-65
2022/07/29 07:59:26;;;;;;;;;;;;;;;;;;10522683;28;20290;-65
2022/07/29 08:04:28;;;;;;;;;;;;;;;;;;10541033;28;20367;-65
2022/07/29 08:09:31;;;;;;;;;;;;;;;;;;10541628;28;19970;-65
2022/07/29 08:14:33;;;;;;;;;;;;;;;;;;10540102;28;19931;-65
2022/07/29 08:19:36;;;;;;;;;;;;;;;;;;10540586;28;19924;-65
2022/07/29 08:24:46;;;;;;;;;;;;;;;;;;10540825;28;19938;-65
2022/07/29 08:29:48;;;;;;;;;;;;;;;;;;10540884;28;19924;-65
2022/07/29 08:34:50;;;;;;;;;;;;;;;;;;10540435;28;19924;-65
2022/07/29 08:39:52;;;;;;;;;;;;;;;;;;10540583;28;19931;-66
2022/07/29 08:44:54;;;;;;;;;;;;;;;;;;10540524;28;19924;-66
2022/07/29 08:49:56;;;;;;;;;;;;;;;;;;10538883;28;19928;-65
2022/07/29 08:54:58;;;;;;;;;;;;;;;;;;10538581;28;19924;-65
2022/07/29 09:00:00;;;;;;;;;;;;;;;;;;10540158;28;19932;-66
2022/07/29 09:05:07;;;;;;;;;;;;;;;;;;10539809;28;19924;-65
2022/07/29 09:10:09;;;;;;;;;;;;;;;;;;10539123;28;20318;-66
2022/07/29 09:15:11;;;;;;;;;;;;;;;;;;10545736;28;19924;-66
2022/07/29 09:20:13;;;;;;;;;;;;;;;;;;10547751;28;19924;-66
2022/07/29 09:25:15;;;;;;;;;;;;;;;;;;10548044;28;19935;-66
2022/07/29 09:30:18;;;;;;;;;;;;;;;;;;10546641;28;19924;-66
2022/07/29 09:35:29;;;;;;;;;;;;;;;;;;10488597;28;19932;-66
2022/07/29 09:40:31;;;;;;;;;;;;;;;;;;10538367;28;19930;-66
2022/07/29 09:45:33;;;;;;;;;;;;;;;;;;10545767;28;20363;-67
2022/07/29 09:50:35;;;;;;;;;;;;;;;;;;10546884;28;19932;-67
2022/07/29 09:55:37;;;;;;;;;;;;;;;;;;10546534;28;19924;-67
2022/07/29 10:00:39;;;;;;;;;;;;;;;;;;10545901;28;20272;-67
2022/07/29 10:05:41;;;;;;;;;;;;;;;;;;10546085;28;19977;-67
2022/07/29 10:10:44;;;;;;;;;;;;;;;;;;10545810;28;19924;-67
2022/07/29 10:15:46;;;;;;;;;;;;;;;;;;10544536;28;19928;-67
2022/07/29 10:20:48;;;;;;;;;;;;;;;;;;10545815;28;19946;-68
2022/07/29 10:25:50;;;;;;;;;;;;;;;;;;10545069;28;20371;-67
2022/07/29 10:30:52;;;;;;;;;;;;;;;;;;10544188;28;19943;-67
2022/07/29 10:35:54;;;;;;;;;;;;;;;;;;10544929;28;19931;-67
2022/07/29 10:46:20;;;;;;;;;;;;;;;;;;10544484;28;19970;-67
2022/07/29 10:51:22;;;;;;;;;;;;;;;;;;10539055;28;19924;-67
2022/07/29 10:56:25;;;;;;;;;;;;;;;;;;10535575;28;20325;-67
2022/07/29 11:01:27;;;;;;;;;;;;;;;;;;10586404;28;19923;-68
2022/07/29 11:06:38;;;;;;;;;;;;;;;;;;10586151;28;19931;-68
2022/07/29 11:11:41;;;;;;;;;;;;;;;;;;10572328;28;19924;-68
2022/07/29 11:16:44;;;;;;;;;;;;;;;;;;10542807;28;20447;-68
2022/07/29 11:21:47;;;;;;;;;;;;;;;;;;10543172;28;19935;-68
2022/07/29 11:27:09;;;;;;;;;;;;;;;;;;10542982;28;19928;-68
2022/07/29 11:32:11;;;;;;;;;;;;;;;;;;10542806;28;19931;-67
2022/07/29 11:37:19;;;;;;;;;;;;;;;;;;10541256;28;20294;-67
2022/07/29 11:42:29;;;;;;;;;;;;;;;;;;10542953;28;19928;-68
2022/07/29 11:47:36;;;;;;;;;;;;;;;;;;10542272;28;19924;-68
2022/07/29 11:52:46;;;;;;;;;;;;;;;;;;10539451;28;20018;-68
2022/07/29 11:57:52;;;;;;;;;;;;;;;;;;10500251;28;19924;-68
2022/07/29 12:03:05;;;;;;;;;;;;;;;;;;10499974;28;19929;-68
2022/07/29 12:08:07;;;;;;;;;;;;;;;;;;10512486;28;19928;-68
2022/07/29 12:13:09;;;;;;;;;;;;;;;;;;10540286;28;20278;-67
2022/07/29 12:18:12;;;;;;;;;;;;;;;;;;10541388;28;19931;-68
2022/07/29 12:23:14;;;;;;;;;;;;;;;;;;10540515;28;20398;-68
2022/07/29 12:28:18;;;;;;;;;;;;;;;;;;10540795;28;19928;-68
2022/07/29 12:33:27;;;;;;;;;;;;;;;;;;10540862;28;19924;-68
2022/07/29 12:38:29;;;;;;;;;;;;;;;;;;10540779;28;19924;-68
2022/07/29 12:43:32;;;;;;;;;;;;;;;;;;10540237;28;19924;-68
2022/07/29 12:48:34;;;;;;;;;;;;;;;;;;10539416;28;20327;-68
2022/07/29 12:53:36;;;;;;;;;;;;;;;;;;10540233;28;19924;-68
2022/07/29 12:58:38;;;;;;;;;;;;;;;;;;10540236;28;19930;-68
2022/07/29 13:03:40;;;;;;;;;;;;;;;;;;10539889;28;19924;-68
2022/07/29 13:08:42;;;;;;;;;;;;;;;;;;10538592;28;19930;-68
2022/07/29 13:13:44;;;;;;;;;;;;;;;;;;10538759;28;20371;-68
2022/07/29 13:18:46;;;;;;;;;;;;;;;;;;10540022;28;19935;-68
2022/07/29 13:23:48;;;;;;;;;;;;;;;;;;10539662;28;19924;-68
2022/07/29 13:28:50;;;;;;;;;;;;;;;;;;10538476;28;19924;-68
2022/07/29 13:33:53;;;;;;;;;;;;;;;;;;10538853;28;20294;-68
2022/07/29 13:38:55;;;;;;;;;;;;;;;;;;10539608;28;19931;-68
2022/07/29 13:43:57;;;;;;;;;;;;;;;;;;10539275;28;19928;-68
2022/07/29 13:48:59;;;;;;;;;;;;;;;;;;10539404;28;19931;-68
2022/07/29 13:54:01;;;;;;;;;;;;;;;;;;10537796;28;19932;-68
2022/07/29 13:59:03;;;;;;;;;;;;;;;;;;10541576;28;19924;-68
2022/07/29 14:04:05;;;;;;;;;;;;;;;;;;10546610;28;19924;-68
2022/07/29 14:09:10;;;;;;;;;;;;;;;;;;10527727;28;19932;-68
2022/07/29 14:14:12;;;;;;;;;;;;;;;;;;10545571;28;19925;-68
2022/07/29 14:19:15;;;;;;;;;;;;;;;;;;10545914;28;19932;-68
2022/07/29 14:24:17;;;;;;;;;;;;;;;;;;10545668;28;19928;-68
2022/07/29 14:29:23;;;;;;;;;;;;;;;;;;10539741;22;19974;-68
2022/07/29 14:34:25;;;;;;;;;;;;;;;;;;10503536;28;19924;-68
2022/07/29 14:39:29;;;;;;;;;;;;;;;;;;10502862;28;19946;-67
2022/07/29 14:44:32;;;;;;;;;;;;;;;;;;10502820;28;19924;-68
2022/07/29 14:49:35;;;;;;;;;;;;;;;;;;10502289;28;19924;-68
2022/07/29 14:54:37;;;;;;;;;;;;;;;;;;10502469;28;20019;-68
2022/07/29 14:59:39;;;;;;;;;;;;;;;;;;10502467;28;19935;-68
2022/07/29 15:04:41;;;;;;;;;;;;;;;;;;10502339;28;19932;-68
2022/07/29 15:09:44;;;;;;;;;;;;;;;;;;10501393;28;19948;-68
2022/07/29 15:14:51;;;;;;;;;;;;;;;;;;10501030;28;19928;-68
2022/07/29 15:19:53;;;;;;;;;;;;;;;;;;10501710;28;19942;-67
2022/07/29 15:24:55;;;;;;;;;;;;;;;;;;10500635;28;19931;-67
2022/07/29 15:29:57;;;;;;;;;;;;;;;;;;10500455;28;20276;-67
2022/07/29 15:34:59;;;;;;;;;;;;;;;;;;10500037;28;20378;-67
2022/07/29 15:40:01;;;;;;;;;;;;;;;;;;10483050;28;19931;-67
2022/07/29 15:45:03;;;;;;;;;;;;;;;;;;10500356;28;20023;-67
2022/07/29 15:50:06;;;;;;;;;;;;;;;;;;10500555;28;19925;-68
2022/07/29 15:55:08;;;;;;;;;;;;;;;;;;10499496;28;19947;-68
2022/07/29 16:00:10;;;;;;;;;;;;;;;;;;10499585;28;19931;-68
2022/07/29 16:05:13;;;;;;;;;;;;;;;;;;10499705;28;19925;-68
2022/07/29 16:10:15;;;;;;;;;;;;;;;;;;10499103;28;20371;-68
2022/07/29 16:15:17;;;;;;;;;;;;;;;;;;10499045;28;19925;-68
2022/07/29 16:20:19;;;;;;;;;;;;;;;;;;10499094;28;19974;-68
2022/07/29 16:25:21;;;;;;;;;;;;;;;;;;10498740;28;19925;-68
2022/07/29 16:30:39;;;;;;;;;;;;;;;;;;10498638;28;19934;-68
2022/07/29 16:35:41;;;;;;;;;;;;;;;;;;10499462;28;19931;-68
2022/07/29 16:40:43;;;;;;;;;;;;;;;;;;10498964;28;19924;-68
2022/07/29 16:45:45;;;;;;;;;;;;;;;;;;10497938;28;19931;-68
2022/07/29 16:50:48;;;;;;;;;;;;;;;;;;10498008;28;19946;-68
2022/07/29 16:55:50;;;;;;;;;;;;;;;;;;10498095;28;19947;-68
2022/07/29 17:00:52;;;;;;;;;;;;;;;;;;10497698;28;20282;-67
2022/07/29 17:05:54;;;;;;;;;;;;;;;;;;10498462;28;19932;-68
2022/07/29 17:10:56;;;;;;;;;;;;;;;;;;10497529;28;19948;-68
2022/07/29 17:15:58;;;;;;;;;;;;;;;;;;10497204;28;19931;-68
2022/07/29 17:21:01;;;;;;;;;;;;;;;;;;10498139;28;19963;-67
2022/07/29 17:26:03;;;;;;;;;;;;;;;;;;10497169;28;20397;-68
2022/07/29 17:31:06;;;;;;;;;;;;;;;;;;10497185;28;19925;-67
2022/07/29 17:36:29;;;;;;;;;;;;;;;;;;10504592;28;20372;-67
2022/07/29 17:41:30;;;;;;;;;;;;;;;;;;10505710;28;19925;-67
2022/07/29 17:46:32;;;;;;;;;;;;;;;;;;10505353;28;19924;-67
2022/07/29 17:51:34;;;;;;;;;;;;;;;;;;10504360;28;19973;-66
2022/07/29 17:56:36;;;;;;;;;;;;;;;;;;10487359;28;19931;-67
2022/07/29 18:01:40;;;;;;;;;;;;;;;;;;10504802;28;19935;-67
2022/07/29 18:06:42;;;;;;;;;;;;;;;;;;10504193;28;19932;-67
2022/07/29 18:11:45;;;;;;;;;;;;;;;;;;10504224;28;19939;-67
2022/07/29 18:16:47;;;;;;;;;;;;;;;;;;10503972;28;19930;-67
2022/07/29 18:21:49;;;;;;;;;;;;;;;;;;10503539;28;20449;-67
2022/07/29 18:26:55;;;;;;;;;;;;;;;;;;10503316;28;20369;-67
2022/07/29 18:31:58;;;;;;;;;;;;;;;;;;10502702;28;19925;-68
2022/07/29 18:37:00;;;;;;;;;;;;;;;;;;10503612;28;19932;-67
2022/07/29 18:42:02;;;;;;;;;;;;;;;;;;10502796;28;20268;-67
2022/07/29 18:47:05;;;;;;;;;;;;;;;;;;10501601;28;20371;-68
2022/07/29 18:52:09;;;;;;;;;;;;;;;;;;10502095;28;20300;-67
2022/07/29 18:57:11;;;;;;;;;;;;;;;;;;10502824;28;19924;-67
2022/07/29 19:02:34;;;;;;;;;;;;;;;;;;10502789;28;19925;-67
2022/07/29 19:07:37;;;;;;;;;;;;;;;;;;10502314;28;19930;-67
2022/07/29 19:12:39;;;;;;;;;;;;;;;;;;10501799;28;19928;-67
2022/07/29 19:17:41;;;;;;;;;;;;;;;;;;10501182;28;19925;-67
2022/07/29 19:22:44;;;;;;;;;;;;;;;;;;10501445;28;19925;-67
2022/07/29 19:27:46;;;;;;;;;;;;;;;;;;10500760;28;19925;-67
2022/07/29 19:32:48;;;;;;;;;;;;;;;;;;10500126;28;19924;-67
2022/07/29 19:37:50;;;;;;;;;;;;;;;;;;10500390;28;20386;-67
2022/07/29 19:42:52;;;;;;;;;;;;;;;;;;10500535;28;19929;-67
2022/07/29 19:47:54;;;;;;;;;;;;;;;;;;10499773;28;20393;-67
2022/07/29 19:53:02;;;;;;;;;;;;;;;;;;10483214;28;19924;-67
2022/07/29 19:58:04;;;;;;;;;;;;;;;;;;10499416;28;19932;-67
2022/07/29 20:03:07;;;;;;;;;;;;;;;;;;10499938;28;19924;-67
2022/07/29 20:08:09;;;;;;;;;;;;;;;;;;10499864;28;19928;-67
2022/07/29 20:13:11;;;;;;;;;;;;;;;;;;10498680;28;20425;-67
2022/07/29 20:18:14;;;;;;;;;;;;;;;;;;10499592;28;19931;-67
2022/07/29 20:23:18;;;;;;;;;;;;;;;;;;10480859;28;20291;-67
2022/07/29 20:28:20;;;;;;;;;;;;;;;;;;10499004;28;20045;-67
2022/07/29 20:33:22;;;;;;;;;;;;;;;;;;10499062;28;19931;-67
2022/07/29 20:38:24;;;;;;;;;;;;;;;;;;10499099;28;19924;-67
2022/07/29 20:43:26;;;;;;;;;;;;;;;;;;10480268;28;20288;-67
2022/07/29 20:48:28;;;;;;;;;;;;;;;;;;10498163;28;19931;-67
2022/07/29 20:53:31;;;;;;;;;;;;;;;;;;10498445;28;19931;-67
2022/07/29 20:58:34;;;;;;;;;;;;;;;;;;10498664;28;19932;-67
2022/07/29 21:03:37;;;;;;;;;;;;;;;;;;10498094;28;20027;-67
2022/07/29 21:08:39;;;;;;;;;;;;;;;;;;10501980;28;19928;-67
2022/07/29 21:13:43;;;;;;;;;;;;;;;;;;10505598;28;20287;-67
2022/07/29 21:18:45;;;;;;;;;;;;;;;;;;10506181;28;19924;-67
2022/07/29 21:23:48;;;;;;;;;;;;;;;;;;10506153;28;19925;-67
2022/07/29 21:28:50;;;;;;;;;;;;;;;;;;10505636;28;19932;-67
2022/07/29 21:33:52;;;;;;;;;;;;;;;;;;10505003;28;19925;-67
2022/07/29 21:38:55;;;;;;;;;;;;;;;;;;10505673;28;19924;-67
2022/07/29 21:43:57;;;;;;;;;;;;;;;;;;10505653;28;19924;-67
2022/07/29 21:49:00;;;;;;;;;;;;;;;;;;10505141;28;19932;-66
2022/07/29 21:54:02;;;;;;;;;;;;;;;;;;10505042;28;20027;-67
2022/07/29 21:59:05;;;;;;;;;;;;;;;;;;10504463;28;19979;-67
2022/07/29 22:04:10;;;;;;;;;;;;;;;;;;10504076;28;20279;-66
2022/07/29 22:09:12;;;;;;;;;;;;;;;;;;10503967;28;20468;-67
2022/07/29 22:14:16;;;;;;;;;;;;;;;;;;10504198;28;19925;-67
2022/07/29 22:19:18;;;;;;;;;;;;;;;;;;10503357;28;19931;-66
2022/07/29 22:24:20;;;;;;;;;;;;;;;;;;10503413;28;20286;-66
2022/07/29 22:29:22;;;;;;;;;;;;;;;;;;10503433;28;19931;-67
2022/07/29 22:34:24;;;;;;;;;;;;;;;;;;10502811;28;19930;-67
2022/07/29 22:39:26;;;;;;;;;;;;;;;;;;10503667;28;19925;-66
2022/07/29 22:44:29;;;;;;;;;;;;;;;;;;10503296;28;19951;-66
2022/07/29 22:49:31;;;;;;;;;;;;;;;;;;10503050;28;19932;-66
2022/07/29 22:54:33;;;;;;;;;;;;;;;;;;10502674;28;19931;-66
2022/07/29 22:59:36;;;;;;;;;;;;;;;;;;10502770;28;19931;-66
2022/07/29 23:04:38;;;;;;;;;;;;;;;;;;10501614;28;19924;-66
2022/07/29 23:09:40;;;;;;;;;;;;;;;;;;10501730;28;19931;-66
2022/07/29 23:14:42;;;;;;;;;;;;;;;;;;10501004;28;20264;-66
2022/07/29 23:19:44;;;;;;;;;;;;;;;;;;10501897;28;19924;-66
2022/07/29 23:24:46;;;;;;;;;;;;;;;;;;10501640;28;19925;-66
2022/07/29 23:29:49;;;;;;;;;;;;;;;;;;10500437;28;20383;-66
2022/07/29 23:34:51;;;;;;;;;;;;;;;;;;10500845;28;19925;-66
2022/07/29 23:39:53;;;;;;;;;;;;;;;;;;10501082;28;20015;-66
2022/07/29 23:44:55;;;;;;;;;;;;;;;;;;10500177;28;19948;-66
2022/07/29 23:49:58;;;;;;;;;;;;;;;;;;10500529;28;19931;-66
2022/07/29 23:55:00;;;;;;;;;;;;;;;;;;10500175;28;19982;-66
